Time;durP1;ratioP1;P1;durP2;ratioP2;P2;SDS_P1;SDS_P2;PMS_P1;PMS_P2;Temp;Humidity;BMP_temperature;BMP_pressure;BME280_temperature;BME280_humidity;BME280_pressure;Samples;Min_cycle;Max_cycle;Signal;HPM_P1;HPM_P2
2022/07/28 00:00:20;;;;;;;;;;;;;;;;;;1041538;28;3708;-53
2022/07/28 00:01:08;;;;;;;;;;;;;;;;;;1042380;28;3746;-53
2022/07/28 00:01:38;;;;;;;;;;;;;;;;;;1044724;28;4000;-55
2022/07/28 00:02:09;;;;;;;;;;;;;;;;;;1045284;28;2697;-52
2022/07/28 00:02:39;;;;;;;;;;;;;;;;;;1044637;28;3980;-51
2022/07/28 00:03:09;;;;;;;;;;;;;;;;;;1038905;28;3842;-55
2022/07/28 00:03:40;;;;;;;;;;;;;;;;;;1040546;28;3839;-51
2022/07/28 00:04:10;;;;;;;;;;;;;;;;;;1036088;28;2499;-52
2022/07/28 00:04:40;;;;;;;;;;;;;;;;;;1035805;28;4295;-53
2022/07/28 00:05:10;;;;;;;;;;;;;;;;;;1034272;28;3231;-51
2022/07/28 00:05:41;;;;;;;;;;;;;;;;;;1035273;28;3951;-54
2022/07/28 00:06:11;;;;;;;;;;;;;;;;;;1044488;28;2400;-53
2022/07/28 00:06:41;;;;;;;;;;;;;;;;;;1044207;28;3790;-53
2022/07/28 00:07:12;;;;;;;;;;;;;;;;;;1043824;28;2395;-54
2022/07/28 00:07:42;;;;;;;;;;;;;;;;;;1045142;28;3960;-53
2022/07/28 00:08:12;;;;;;;;;;;;;;;;;;1040692;28;2969;-54
2022/07/28 00:08:42;;;;;;;;;;;;;;;;;;1041334;28;3801;-53
2022/07/28 00:09:13;;;;;;;;;;;;;;;;;;1041105;28;3065;-54
2022/07/28 00:09:43;;;;;;;;;;;;;;;;;;1038128;28;5033;-53
2022/07/28 00:10:13;;;;;;;;;;;;;;;;;;1043354;28;3835;-55
2022/07/28 00:10:44;;;;;;;;;;;;;;;;;;1043663;28;4076;-53
2022/07/28 00:11:14;;;;;;;;;;;;;;;;;;1045053;28;3244;-53
2022/07/28 00:11:44;;;;;;;;;;;;;;;;;;1043726;28;4059;-52
2022/07/28 00:12:14;;;;;;;;;;;;;;;;;;1043369;28;3792;-57
2022/07/28 00:12:45;;;;;;;;;;;;;;;;;;1044282;28;3894;-55
2022/07/28 00:13:15;;;;;;;;;;;;;;;;;;1043307;28;3787;-51
2022/07/28 00:13:45;;;;;;;;;;;;;;;;;;1044688;28;3917;-53
2022/07/28 00:14:15;;;;;;;;;;;;;;;;;;1044873;28;2499;-54
2022/07/28 00:14:46;;;;;;;;;;;;;;;;;;1045104;28;4193;-51
2022/07/28 00:15:16;;;;;;;;;;;;;;;;;;1044277;28;1704;-53
2022/07/28 00:15:46;;;;;;;;;;;;;;;;;;1045385;28;4244;-53
2022/07/28 00:16:17;;;;;;;;;;;;;;;;;;1045014;28;1687;-54
2022/07/28 00:16:47;;;;;;;;;;;;;;;;;;1044604;28;4061;-52
2022/07/28 00:17:17;;;;;;;;;;;;;;;;;;1044810;28;1747;-54
2022/07/28 00:17:47;;;;;;;;;;;;;;;;;;1045140;28;3950;-53
2022/07/28 00:18:25;;;;;;;;;;;;;;;;;;1043742;28;4458;-51
2022/07/28 00:18:55;;;;;;;;;;;;;;;;;;1043383;28;3874;-51
2022/07/28 00:19:25;;;;;;;;;;;;;;;;;;1043906;28;4125;-51
2022/07/28 00:19:56;;;;;;;;;;;;;;;;;;1043331;28;2874;-55
2022/07/28 00:20:26;;;;;;;;;;;;;;;;;;1042263;28;8086;-52
2022/07/28 00:20:57;;;;;;;;;;;;;;;;;;1045815;28;2949;-53
2022/07/28 00:21:27;;;;;;;;;;;;;;;;;;1043073;28;4179;-53
2022/07/28 00:21:57;;;;;;;;;;;;;;;;;;1044558;28;3234;-54
2022/07/28 00:22:28;;;;;;;;;;;;;;;;;;1037194;28;3942;-55
2022/07/28 00:22:58;;;;;;;;;;;;;;;;;;1039686;28;3984;-50
2022/07/28 00:23:28;;;;;;;;;;;;;;;;;;1037477;28;4097;-54
2022/07/28 00:23:58;;;;;;;;;;;;;;;;;;1038769;28;3664;-53
2022/07/28 00:24:30;;;;;;;;;;;;;;;;;;1043982;28;3896;-49
2022/07/28 00:25:00;;;;;;;;;;;;;;;;;;1043499;28;2724;-56
2022/07/28 00:25:31;;;;;;;;;;;;;;;;;;1043547;28;3899;-56
2022/07/28 00:26:01;;;;;;;;;;;;;;;;;;1045003;28;2619;-56
2022/07/28 00:26:31;;;;;;;;;;;;;;;;;;1043629;28;4224;-52
2022/07/28 00:27:02;;;;;;;;;;;;;;;;;;1045291;28;2368;-52
2022/07/28 00:27:33;;;;;;;;;;;;;;;;;;1044332;28;4010;-56
2022/07/28 00:28:03;;;;;;;;;;;;;;;;;;1039869;28;2374;-51
2022/07/28 00:28:33;;;;;;;;;;;;;;;;;;1039538;28;3828;-55
2022/07/28 00:29:04;;;;;;;;;;;;;;;;;;1039981;28;3095;-53
2022/07/28 00:29:34;;;;;;;;;;;;;;;;;;1038551;28;4453;-53
2022/07/28 00:30:06;;;;;;;;;;;;;;;;;;1044147;28;2666;-55
2022/07/28 00:30:36;;;;;;;;;;;;;;;;;;1044629;28;4444;-54
2022/07/28 00:31:06;;;;;;;;;;;;;;;;;;1044817;28;2828;-52
2022/07/28 00:31:36;;;;;;;;;;;;;;;;;;1044314;28;4524;-53
2022/07/28 00:32:07;;;;;;;;;;;;;;;;;;1039315;28;2231;-55
2022/07/28 00:32:37;;;;;;;;;;;;;;;;;;1031878;28;4006;-51
2022/07/28 00:33:08;;;;;;;;;;;;;;;;;;1032629;28;3399;-56
2022/07/28 00:33:38;;;;;;;;;;;;;;;;;;1031441;28;3894;-56
2022/07/28 00:34:09;;;;;;;;;;;;;;;;;;1037088;28;3110;-55
2022/07/28 00:34:39;;;;;;;;;;;;;;;;;;1043343;28;3759;-52
2022/07/28 00:35:09;;;;;;;;;;;;;;;;;;1043762;28;3566;-50
2022/07/28 00:35:40;;;;;;;;;;;;;;;;;;1044531;28;3798;-52
2022/07/28 00:36:11;;;;;;;;;;;;;;;;;;1044084;28;3048;-56
2022/07/28 00:36:42;;;;;;;;;;;;;;;;;;1043838;28;4286;-56
2022/07/28 00:37:12;;;;;;;;;;;;;;;;;;1044741;28;2678;-53
2022/07/28 00:37:42;;;;;;;;;;;;;;;;;;1043638;28;4051;-53
2022/07/28 00:38:13;;;;;;;;;;;;;;;;;;1043412;28;3296;-53
2022/07/28 00:38:43;;;;;;;;;;;;;;;;;;1044681;28;4071;-55
2022/07/28 00:39:13;;;;;;;;;;;;;;;;;;1044415;28;2839;-52
2022/07/28 00:39:43;;;;;;;;;;;;;;;;;;1043219;28;4274;-55
2022/07/28 00:40:14;;;;;;;;;;;;;;;;;;1043719;28;3127;-52
2022/07/28 00:41:33;;;;;;;;;;;;;;;;;;1041591;28;4232;-54
2022/07/28 00:42:11;;;;;;;;;;;;;;;;;;1035332;28;2889;-54
2022/07/28 00:42:47;;;;;;;;;;;;;;;;;;1035391;28;4214;-54
2022/07/28 00:43:25;;;;;;;;;;;;;;;;;;1035492;28;3808;-55
2022/07/28 00:43:56;;;;;;;;;;;;;;;;;;1039081;28;2992;-55
2022/07/28 00:44:26;;;;;;;;;;;;;;;;;;1037272;28;3817;-54
2022/07/28 00:44:56;;;;;;;;;;;;;;;;;;1037848;28;2866;-54
2022/07/28 00:45:27;;;;;;;;;;;;;;;;;;1034367;28;4114;-53
2022/07/28 00:45:57;;;;;;;;;;;;;;;;;;1036891;28;3631;-51
2022/07/28 00:46:27;;;;;;;;;;;;;;;;;;1037813;28;4387;-55
2022/07/28 00:46:57;;;;;;;;;;;;;;;;;;1037672;28;2522;-53
2022/07/28 00:47:28;;;;;;;;;;;;;;;;;;1037965;28;4381;-53
2022/07/28 00:47:58;;;;;;;;;;;;;;;;;;1035962;28;2740;-49
2022/07/28 00:48:29;;;;;;;;;;;;;;;;;;1036294;28;4036;-54
2022/07/28 00:48:59;;;;;;;;;;;;;;;;;;1037189;28;3132;-53
2022/07/28 00:49:30;;;;;;;;;;;;;;;;;;1036527;28;4133;-51
2022/07/28 00:50:01;;;;;;;;;;;;;;;;;;1036551;28;2837;-49
2022/07/28 00:50:31;;;;;;;;;;;;;;;;;;1037356;28;3928;-52
2022/07/28 00:51:02;;;;;;;;;;;;;;;;;;1037262;28;2464;-52
2022/07/28 00:51:32;;;;;;;;;;;;;;;;;;1037073;28;3982;-54
2022/07/28 00:52:07;;;;;;;;;;;;;;;;;;1035672;28;3042;-52
2022/07/28 00:52:37;;;;;;;;;;;;;;;;;;1035807;28;3854;-54
2022/07/28 00:53:08;;;;;;;;;;;;;;;;;;1036783;28;4005;-52
2022/07/28 00:53:38;;;;;;;;;;;;;;;;;;1037182;28;4237;-51
2022/07/28 00:54:08;;;;;;;;;;;;;;;;;;1037850;28;2989;-53
2022/07/28 00:54:39;;;;;;;;;;;;;;;;;;1036998;28;4440;-53
2022/07/28 00:55:10;;;;;;;;;;;;;;;;;;1037804;28;2599;-52
2022/07/28 00:55:40;;;;;;;;;;;;;;;;;;1035696;28;3821;-51
2022/07/28 00:56:10;;;;;;;;;;;;;;;;;;1037771;28;2911;-51
2022/07/28 00:56:41;;;;;;;;;;;;;;;;;;1037018;28;3906;-52
2022/07/28 00:57:11;;;;;;;;;;;;;;;;;;1038293;28;3119;-54
2022/07/28 00:57:41;;;;;;;;;;;;;;;;;;1036331;28;3954;-51
2022/07/28 00:58:11;;;;;;;;;;;;;;;;;;1036932;28;3260;-55
2022/07/28 00:58:42;;;;;;;;;;;;;;;;;;1035860;28;3875;-53
2022/07/28 00:59:12;;;;;;;;;;;;;;;;;;1036972;28;3077;-54
2022/07/28 00:59:42;;;;;;;;;;;;;;;;;;1036188;28;4219;-55
2022/07/28 01:00:13;;;;;;;;;;;;;;;;;;1037621;28;3424;-51
2022/07/28 01:00:43;;;;;;;;;;;;;;;;;;1036632;28;4416;-52
2022/07/28 01:01:16;;;;;;;;;;;;;;;;;;1037926;28;2644;-55
2022/07/28 01:01:47;;;;;;;;;;;;;;;;;;1036075;28;3937;-52
2022/07/28 01:02:18;;;;;;;;;;;;;;;;;;1036965;28;3582;-53
2022/07/28 01:02:48;;;;;;;;;;;;;;;;;;1036297;28;4093;-50
2022/07/28 01:03:19;;;;;;;;;;;;;;;;;;1037053;28;1285;-52
2022/07/28 01:03:52;;;;;;;;;;;;;;;;;;1035796;28;3833;-54
2022/07/28 01:04:23;;;;;;;;;;;;;;;;;;1039980;28;4069;-52
2022/07/28 01:04:54;;;;;;;;;;;;;;;;;;1036215;28;3724;-53
2022/07/28 01:05:27;;;;;;;;;;;;;;;;;;1037330;28;3926;-51
2022/07/28 01:05:57;;;;;;;;;;;;;;;;;;1035402;28;3112;-51
2022/07/28 01:06:47;;;;;;;;;;;;;;;;;;1037668;28;4250;-53
2022/07/28 01:07:17;;;;;;;;;;;;;;;;;;1035762;28;3102;-55
2022/07/28 01:08:00;;;;;;;;;;;;;;;;;;1035713;28;3946;-53
2022/07/28 01:08:44;;;;;;;;;;;;;;;;;;1036160;28;5014;-51
2022/07/28 01:09:37;;;;;;;;;;;;;;;;;;1035053;28;3083;-53
2022/07/28 01:10:12;;;;;;;;;;;;;;;;;;1034978;28;3944;-53
2022/07/28 01:11:00;;;;;;;;;;;;;;;;;;1036033;28;4388;-55
2022/07/28 01:11:33;;;;;;;;;;;;;;;;;;1036000;28;3995;-52
2022/07/28 01:12:10;;;;;;;;;;;;;;;;;;1036562;28;3828;-53
2022/07/28 01:12:46;;;;;;;;;;;;;;;;;;1036407;28;4145;-53
2022/07/28 01:13:40;;;;;;;;;;;;;;;;;;1035768;28;3406;-52
2022/07/28 01:14:13;;;;;;;;;;;;;;;;;;1032235;28;3903;-54
2022/07/28 01:15:03;;;;;;;;;;;;;;;;;;1031627;28;3812;-54
2022/07/28 01:15:39;;;;;;;;;;;;;;;;;;1025456;28;4111;-53
2022/07/28 01:16:09;;;;;;;;;;;;;;;;;;1023306;28;2629;-52
2022/07/28 01:16:44;;;;;;;;;;;;;;;;;;1029563;28;3838;-53
2022/07/28 01:17:23;;;;;;;;;;;;;;;;;;1034142;28;2858;-53
2022/07/28 01:18:00;;;;;;;;;;;;;;;;;;1039381;28;3737;-52
2022/07/28 01:18:38;;;;;;;;;;;;;;;;;;1040015;28;4319;-51
2022/07/28 01:19:28;;;;;;;;;;;;;;;;;;1039642;28;3030;-54
2022/07/28 01:20:04;;;;;;;;;;;;;;;;;;1036427;28;3743;-53
2022/07/28 01:20:42;;;;;;;;;;;;;;;;;;1035842;28;4383;-48
2022/07/28 01:21:16;;;;;;;;;;;;;;;;;;1037671;28;3249;-53
2022/07/28 01:21:47;;;;;;;;;;;;;;;;;;1036734;28;4002;-52
2022/07/28 01:22:20;;;;;;;;;;;;;;;;;;1038540;28;1583;-51
2022/07/28 01:23:11;;;;;;;;;;;;;;;;;;1034382;28;4062;-54
2022/07/28 01:23:52;;;;;;;;;;;;;;;;;;1039337;28;4443;-51
2022/07/28 01:24:46;;;;;;;;;;;;;;;;;;1041033;28;3955;-55
2022/07/28 01:25:20;;;;;;;;;;;;;;;;;;1036547;28;2085;-53
2022/07/28 01:26:09;;;;;;;;;;;;;;;;;;1036056;28;4488;-51
2022/07/28 01:26:46;;;;;;;;;;;;;;;;;;1039784;28;4315;-55
2022/07/28 01:27:26;;;;;;;;;;;;;;;;;;1041890;28;3151;-51
2022/07/28 01:28:12;;;;;;;;;;;;;;;;;;1037783;28;4165;-52
2022/07/28 01:28:58;;;;;;;;;;;;;;;;;;1036537;28;4382;-55
2022/07/28 01:29:51;;;;;;;;;;;;;;;;;;1031277;28;3961;-52
2022/07/28 01:30:25;;;;;;;;;;;;;;;;;;1035643;28;3887;-51
2022/07/28 01:30:57;;;;;;;;;;;;;;;;;;1036359;28;2417;-53
2022/07/28 01:31:31;;;;;;;;;;;;;;;;;;1038629;28;3830;-54
2022/07/28 01:32:01;;;;;;;;;;;;;;;;;;1038757;28;2712;-55
2022/07/28 01:32:36;;;;;;;;;;;;;;;;;;1039049;28;3891;-55
2022/07/28 01:33:10;;;;;;;;;;;;;;;;;;1037546;28;2687;-53
2022/07/28 01:33:45;;;;;;;;;;;;;;;;;;1032854;28;4069;-54
2022/07/28 01:34:18;;;;;;;;;;;;;;;;;;1032828;28;2949;-54
2022/07/28 01:34:51;;;;;;;;;;;;;;;;;;1029752;28;3800;-51
2022/07/28 01:35:23;;;;;;;;;;;;;;;;;;1035155;28;3919;-51
2022/07/28 01:35:57;;;;;;;;;;;;;;;;;;1040816;28;2576;-51
2022/07/28 01:36:30;;;;;;;;;;;;;;;;;;1039600;28;3807;-53
2022/07/28 01:37:11;;;;;;;;;;;;;;;;;;1035854;28;4195;-55
2022/07/28 01:37:46;;;;;;;;;;;;;;;;;;1036660;28;4465;-51
2022/07/28 01:38:17;;;;;;;;;;;;;;;;;;1034770;28;3605;-54
2022/07/28 01:38:47;;;;;;;;;;;;;;;;;;1035252;28;3810;-56
2022/07/28 01:39:19;;;;;;;;;;;;;;;;;;1037036;28;2064;-56
2022/07/28 01:39:52;;;;;;;;;;;;;;;;;;1035613;28;3807;-53
2022/07/28 01:40:25;;;;;;;;;;;;;;;;;;1036819;28;3819;-54
2022/07/28 01:40:56;;;;;;;;;;;;;;;;;;1037137;28;2647;-55
2022/07/28 01:41:28;;;;;;;;;;;;;;;;;;1037142;28;3928;-53
2022/07/28 01:42:06;;;;;;;;;;;;;;;;;;1035533;28;2777;-55
2022/07/28 01:42:47;;;;;;;;;;;;;;;;;;1039309;28;4307;-54
2022/07/28 01:43:24;;;;;;;;;;;;;;;;;;1039505;28;3917;-54
2022/07/28 01:44:00;;;;;;;;;;;;;;;;;;1040478;28;2414;-54
2022/07/28 01:44:31;;;;;;;;;;;;;;;;;;1039230;28;3978;-53
2022/07/28 01:45:03;;;;;;;;;;;;;;;;;;1039563;28;2458;-54
2022/07/28 01:45:34;;;;;;;;;;;;;;;;;;1042862;28;4238;-54
2022/07/28 01:46:05;;;;;;;;;;;;;;;;;;1043373;28;2828;-53
2022/07/28 01:46:36;;;;;;;;;;;;;;;;;;1042777;28;3793;-54
2022/07/28 01:47:06;;;;;;;;;;;;;;;;;;1043460;28;2714;-55
2022/07/28 01:47:38;;;;;;;;;;;;;;;;;;1039759;28;3898;-51
2022/07/28 01:48:09;;;;;;;;;;;;;;;;;;1039263;28;3180;-54
2022/07/28 01:48:40;;;;;;;;;;;;;;;;;;1039226;28;3883;-55
2022/07/28 01:49:12;;;;;;;;;;;;;;;;;;1039590;28;3239;-55
2022/07/28 01:49:44;;;;;;;;;;;;;;;;;;1038208;28;3960;-53
2022/07/28 01:50:16;;;;;;;;;;;;;;;;;;1039082;28;2980;-51
2022/07/28 01:50:48;;;;;;;;;;;;;;;;;;1038461;28;3777;-51
2022/07/28 01:51:19;;;;;;;;;;;;;;;;;;1040281;28;3838;-54
2022/07/28 01:51:51;;;;;;;;;;;;;;;;;;1042465;28;4197;-54
2022/07/28 01:52:22;;;;;;;;;;;;;;;;;;1043018;28;3802;-53
2022/07/28 01:52:53;;;;;;;;;;;;;;;;;;1043304;28;3049;-52
2022/07/28 01:53:24;;;;;;;;;;;;;;;;;;1042590;28;3940;-53
2022/07/28 01:53:55;;;;;;;;;;;;;;;;;;1040912;28;2421;-50
2022/07/28 01:54:27;;;;;;;;;;;;;;;;;;1039257;28;3966;-52
2022/07/28 01:54:59;;;;;;;;;;;;;;;;;;1039392;28;2401;-56
2022/07/28 01:55:29;;;;;;;;;;;;;;;;;;1039684;28;3793;-55
2022/07/28 01:56:00;;;;;;;;;;;;;;;;;;1039626;28;2680;-53
2022/07/28 01:56:31;;;;;;;;;;;;;;;;;;1045098;28;4080;-53
2022/07/28 01:57:03;;;;;;;;;;;;;;;;;;1045221;28;2396;-55
2022/07/28 01:57:34;;;;;;;;;;;;;;;;;;1044347;28;3909;-55
2022/07/28 01:58:05;;;;;;;;;;;;;;;;;;1044767;28;3211;-52
2022/07/28 01:58:36;;;;;;;;;;;;;;;;;;1043096;28;3972;-54
2022/07/28 01:59:10;;;;;;;;;;;;;;;;;;1039909;28;2365;-54
2022/07/28 01:59:41;;;;;;;;;;;;;;;;;;1039457;28;3899;-54
2022/07/28 02:00:12;;;;;;;;;;;;;;;;;;1040273;28;2713;-52
2022/07/28 02:00:44;;;;;;;;;;;;;;;;;;1038991;28;5688;-55
2022/07/28 02:01:16;;;;;;;;;;;;;;;;;;1044689;28;3236;-51
2022/07/28 02:01:47;;;;;;;;;;;;;;;;;;1042983;28;4173;-55
2022/07/28 02:02:20;;;;;;;;;;;;;;;;;;1044641;28;3749;-53
2022/07/28 02:02:51;;;;;;;;;;;;;;;;;;1043519;28;4264;-56
2022/07/28 02:03:22;;;;;;;;;;;;;;;;;;1039554;28;4177;-54
2022/07/28 02:03:53;;;;;;;;;;;;;;;;;;1041167;28;2878;-56
2022/07/28 02:04:24;;;;;;;;;;;;;;;;;;1039654;28;3936;-53
2022/07/28 02:04:56;;;;;;;;;;;;;;;;;;1039303;28;3767;-52
2022/07/28 02:05:26;;;;;;;;;;;;;;;;;;1039938;28;3980;-55
2022/07/28 02:05:58;;;;;;;;;;;;;;;;;;1044656;28;2404;-48
2022/07/28 02:06:29;;;;;;;;;;;;;;;;;;1043537;28;3912;-52
2022/07/28 02:07:00;;;;;;;;;;;;;;;;;;1039828;28;2893;-52
2022/07/28 02:07:31;;;;;;;;;;;;;;;;;;1038614;28;3818;-55
2022/07/28 02:08:02;;;;;;;;;;;;;;;;;;1039809;28;2985;-56
2022/07/28 02:08:33;;;;;;;;;;;;;;;;;;1039321;28;4461;-52
2022/07/28 02:09:04;;;;;;;;;;;;;;;;;;1039780;28;2788;-53
2022/07/28 02:09:35;;;;;;;;;;;;;;;;;;1039382;28;3998;-55
2022/07/28 02:10:06;;;;;;;;;;;;;;;;;;1032054;28;2994;-53
2022/07/28 02:10:36;;;;;;;;;;;;;;;;;;1035483;28;3927;-55
2022/07/28 02:11:56;;;;;;;;;;;;;;;;;;1039687;28;3901;-55
2022/07/28 02:12:26;;;;;;;;;;;;;;;;;;1043113;28;4265;-55
2022/07/28 02:12:57;;;;;;;;;;;;;;;;;;1041154;28;2437;-54
2022/07/28 02:13:28;;;;;;;;;;;;;;;;;;1039337;28;4097;-57
2022/07/28 02:13:58;;;;;;;;;;;;;;;;;;1039206;28;2741;-56
2022/07/28 02:14:29;;;;;;;;;;;;;;;;;;1038895;28;4138;-53
2022/07/28 02:14:59;;;;;;;;;;;;;;;;;;1040046;28;2771;-55
2022/07/28 02:15:30;;;;;;;;;;;;;;;;;;1039435;28;4088;-50
2022/07/28 02:16:02;;;;;;;;;;;;;;;;;;1039140;28;2729;-50
2022/07/28 02:16:33;;;;;;;;;;;;;;;;;;1038217;28;4391;-53
2022/07/28 02:17:15;;;;;;;;;;;;;;;;;;1039394;28;2739;-54
2022/07/28 02:17:46;;;;;;;;;;;;;;;;;;1039148;28;3811;-53
2022/07/28 02:18:23;;;;;;;;;;;;;;;;;;1034348;28;3827;-54
2022/07/28 02:18:55;;;;;;;;;;;;;;;;;;1036464;28;1997;-54
2022/07/28 02:19:26;;;;;;;;;;;;;;;;;;1037702;28;3970;-51
2022/07/28 02:19:57;;;;;;;;;;;;;;;;;;1039384;28;3176;-53
2022/07/28 02:20:28;;;;;;;;;;;;;;;;;;1039065;28;3879;-54
2022/07/28 02:20:58;;;;;;;;;;;;;;;;;;1037048;28;3535;-55
2022/07/28 02:21:30;;;;;;;;;;;;;;;;;;1040130;28;4080;-51
2022/07/28 02:22:01;;;;;;;;;;;;;;;;;;1038322;28;3300;-55
2022/07/28 02:22:32;;;;;;;;;;;;;;;;;;1038847;28;4077;-52
2022/07/28 02:23:03;;;;;;;;;;;;;;;;;;1039249;28;3561;-57
2022/07/28 02:23:34;;;;;;;;;;;;;;;;;;1039073;28;3917;-55
2022/07/28 02:24:05;;;;;;;;;;;;;;;;;;1039187;28;2715;-55
2022/07/28 02:24:36;;;;;;;;;;;;;;;;;;1039182;28;4239;-53
2022/07/28 02:25:06;;;;;;;;;;;;;;;;;;1040909;28;2851;-53
2022/07/28 02:25:38;;;;;;;;;;;;;;;;;;1039341;28;4448;-54
2022/07/28 02:26:09;;;;;;;;;;;;;;;;;;1040283;28;2438;-55
2022/07/28 02:26:46;;;;;;;;;;;;;;;;;;1039102;28;3904;-51
2022/07/28 02:27:37;;;;;;;;;;;;;;;;;;1039803;28;1842;-52
2022/07/28 02:28:09;;;;;;;;;;;;;;;;;;1039473;28;4226;-54
2022/07/28 02:28:42;;;;;;;;;;;;;;;;;;1038340;28;4254;-54
2022/07/28 02:29:12;;;;;;;;;;;;;;;;;;1039915;28;2759;-54
2022/07/28 02:29:51;;;;;;;;;;;;;;;;;;1040385;28;4317;-56
2022/07/28 02:30:42;;;;;;;;;;;;;;;;;;1040455;28;4383;-56
2022/07/28 02:31:18;;;;;;;;;;;;;;;;;;1042761;28;2868;-56
2022/07/28 02:31:54;;;;;;;;;;;;;;;;;;1041880;28;4503;-54
2022/07/28 02:32:43;;;;;;;;;;;;;;;;;;1037695;28;4026;-53
2022/07/28 02:33:15;;;;;;;;;;;;;;;;;;1040544;28;2969;-54
2022/07/28 02:33:46;;;;;;;;;;;;;;;;;;1034993;28;3884;-55
2022/07/28 02:34:18;;;;;;;;;;;;;;;;;;1040233;28;2973;-52
2022/07/28 02:34:49;;;;;;;;;;;;;;;;;;1040542;28;3899;-52
2022/07/28 02:35:24;;;;;;;;;;;;;;;;;;1041554;28;1391;-54
2022/07/28 02:35:57;;;;;;;;;;;;;;;;;;1039471;28;3864;-53
2022/07/28 02:36:30;;;;;;;;;;;;;;;;;;1038876;28;3889;-54
2022/07/28 02:37:01;;;;;;;;;;;;;;;;;;1038317;28;3616;-54
2022/07/28 02:37:33;;;;;;;;;;;;;;;;;;1038289;28;4110;-51
2022/07/28 02:38:09;;;;;;;;;;;;;;;;;;1038393;28;3707;-55
2022/07/28 02:38:43;;;;;;;;;;;;;;;;;;1039204;28;3951;-53
2022/07/28 02:39:20;;;;;;;;;;;;;;;;;;1036273;28;2577;-54
2022/07/28 02:39:52;;;;;;;;;;;;;;;;;;1035722;28;3916;-55
2022/07/28 02:40:24;;;;;;;;;;;;;;;;;;1037918;28;4089;-52
2022/07/28 02:40:57;;;;;;;;;;;;;;;;;;1040616;28;2842;-52
2022/07/28 02:41:28;;;;;;;;;;;;;;;;;;1038955;28;4421;-55
2022/07/28 02:42:04;;;;;;;;;;;;;;;;;;1039753;28;2771;-53
2022/07/28 02:42:41;;;;;;;;;;;;;;;;;;1041587;28;3845;-53
2022/07/28 02:43:26;;;;;;;;;;;;;;;;;;1042657;28;3376;-53
2022/07/28 02:43:58;;;;;;;;;;;;;;;;;;1042814;28;3839;-52
2022/07/28 02:44:30;;;;;;;;;;;;;;;;;;1041309;28;4090;-54
2022/07/28 02:45:03;;;;;;;;;;;;;;;;;;1044931;28;2980;-54
2022/07/28 02:45:34;;;;;;;;;;;;;;;;;;1044668;28;3844;-52
2022/07/28 02:46:07;;;;;;;;;;;;;;;;;;1045708;28;2650;-53
2022/07/28 02:46:41;;;;;;;;;;;;;;;;;;1044266;28;3976;-54
2022/07/28 02:47:15;;;;;;;;;;;;;;;;;;1044010;28;3237;-53
2022/07/28 02:47:48;;;;;;;;;;;;;;;;;;1043168;28;4008;-50
2022/07/28 02:48:22;;;;;;;;;;;;;;;;;;1042497;28;1590;-52
2022/07/28 02:49:01;;;;;;;;;;;;;;;;;;1040350;28;4956;-53
2022/07/28 02:49:32;;;;;;;;;;;;;;;;;;1039680;28;3929;-52
2022/07/28 02:50:03;;;;;;;;;;;;;;;;;;1040483;28;3382;-52
2022/07/28 02:50:34;;;;;;;;;;;;;;;;;;1039675;28;4422;-56
2022/07/28 02:51:05;;;;;;;;;;;;;;;;;;1039948;28;3577;-53
2022/07/28 02:51:35;;;;;;;;;;;;;;;;;;1039521;28;3851;-52
2022/07/28 02:52:07;;;;;;;;;;;;;;;;;;1041739;28;3374;-54
2022/07/28 02:52:37;;;;;;;;;;;;;;;;;;1038576;28;3847;-55
2022/07/28 02:53:08;;;;;;;;;;;;;;;;;;1043605;28;3027;-54
2022/07/28 02:53:38;;;;;;;;;;;;;;;;;;1037802;28;3917;-51
2022/07/28 02:54:09;;;;;;;;;;;;;;;;;;1040820;28;3094;-54
2022/07/28 02:54:40;;;;;;;;;;;;;;;;;;1033985;28;3913;-53
2022/07/28 02:55:12;;;;;;;;;;;;;;;;;;1036264;28;3153;-53
2022/07/28 02:55:47;;;;;;;;;;;;;;;;;;1039098;28;4074;-56
2022/07/28 02:56:17;;;;;;;;;;;;;;;;;;1040530;28;2647;-54
2022/07/28 02:56:49;;;;;;;;;;;;;;;;;;1040559;28;3858;-52
2022/07/28 02:57:20;;;;;;;;;;;;;;;;;;1038217;28;3638;-55
2022/07/28 02:57:51;;;;;;;;;;;;;;;;;;1039794;28;4114;-54
2022/07/28 02:58:22;;;;;;;;;;;;;;;;;;1039893;28;3906;-54
2022/07/28 02:58:53;;;;;;;;;;;;;;;;;;1040345;28;2414;-53
2022/07/28 02:59:24;;;;;;;;;;;;;;;;;;1040582;28;3813;-55
2022/07/28 02:59:55;;;;;;;;;;;;;;;;;;1039847;28;3219;-53
2022/07/28 03:00:26;;;;;;;;;;;;;;;;;;1039859;28;3895;-53
2022/07/28 03:00:56;;;;;;;;;;;;;;;;;;1039507;28;3128;-55
2022/07/28 03:01:27;;;;;;;;;;;;;;;;;;1039281;28;3988;-55
2022/07/28 03:01:58;;;;;;;;;;;;;;;;;;1040689;28;3321;-57
2022/07/28 03:02:29;;;;;;;;;;;;;;;;;;1039025;28;4250;-52
2022/07/28 03:03:00;;;;;;;;;;;;;;;;;;1036437;28;3267;-54
2022/07/28 03:03:32;;;;;;;;;;;;;;;;;;1036734;28;4579;-51
2022/07/28 03:04:15;;;;;;;;;;;;;;;;;;1036509;28;3094;-56
2022/07/28 03:04:57;;;;;;;;;;;;;;;;;;1039951;28;3917;-55
2022/07/28 03:05:27;;;;;;;;;;;;;;;;;;1040606;28;3899;-51
2022/07/28 03:05:58;;;;;;;;;;;;;;;;;;1039263;28;3081;-52
2022/07/28 03:06:28;;;;;;;;;;;;;;;;;;1040686;28;3922;-51
2022/07/28 03:06:59;;;;;;;;;;;;;;;;;;1040137;28;3057;-54
2022/07/28 03:07:30;;;;;;;;;;;;;;;;;;1041157;28;4106;-54
2022/07/28 03:08:01;;;;;;;;;;;;;;;;;;1038496;28;3265;-51
2022/07/28 03:08:31;;;;;;;;;;;;;;;;;;1040017;28;4015;-53
2022/07/28 03:09:02;;;;;;;;;;;;;;;;;;1038641;28;4057;-52
2022/07/28 03:09:37;;;;;;;;;;;;;;;;;;1040431;28;3873;-54
2022/07/28 03:10:08;;;;;;;;;;;;;;;;;;1040104;28;3295;-53
2022/07/28 03:10:38;;;;;;;;;;;;;;;;;;1040504;28;4100;-55
2022/07/28 03:11:09;;;;;;;;;;;;;;;;;;1039303;28;3845;-55
2022/07/28 03:11:52;;;;;;;;;;;;;;;;;;1040221;28;4409;-52
2022/07/28 03:12:22;;;;;;;;;;;;;;;;;;1039186;28;4200;-58
2022/07/28 03:12:55;;;;;;;;;;;;;;;;;;1043530;28;3661;-52
2022/07/28 03:13:26;;;;;;;;;;;;;;;;;;1043656;28;4341;-55
2022/07/28 03:13:56;;;;;;;;;;;;;;;;;;1045062;28;3096;-55
2022/07/28 03:14:26;;;;;;;;;;;;;;;;;;1044395;28;3834;-55
2022/07/28 03:14:56;;;;;;;;;;;;;;;;;;1040791;28;3042;-52
2022/07/28 03:15:27;;;;;;;;;;;;;;;;;;1039654;28;3948;-53
2022/07/28 03:15:57;;;;;;;;;;;;;;;;;;1040280;28;3072;-54
2022/07/28 03:16:27;;;;;;;;;;;;;;;;;;1040869;28;4273;-53
2022/07/28 03:16:57;;;;;;;;;;;;;;;;;;1040006;28;2870;-55
2022/07/28 03:17:28;;;;;;;;;;;;;;;;;;1040464;28;3829;-53
2022/07/28 03:18:05;;;;;;;;;;;;;;;;;;1040233;28;3329;-53
2022/07/28 03:18:35;;;;;;;;;;;;;;;;;;1039281;28;4013;-54
2022/07/28 03:19:06;;;;;;;;;;;;;;;;;;1040364;28;2546;-56
2022/07/28 03:19:37;;;;;;;;;;;;;;;;;;1039310;28;3857;-51
2022/07/28 03:20:08;;;;;;;;;;;;;;;;;;1039116;28;3094;-52
2022/07/28 03:20:38;;;;;;;;;;;;;;;;;;1038921;28;4069;-56
2022/07/28 03:21:08;;;;;;;;;;;;;;;;;;1039645;28;1686;-55
2022/07/28 03:21:40;;;;;;;;;;;;;;;;;;1040410;28;4862;-55
2022/07/28 03:22:11;;;;;;;;;;;;;;;;;;1040668;28;3001;-55
2022/07/28 03:22:41;;;;;;;;;;;;;;;;;;1038823;28;4255;-56
2022/07/28 03:23:12;;;;;;;;;;;;;;;;;;1038778;28;3201;-56
2022/07/28 03:23:46;;;;;;;;;;;;;;;;;;1039351;28;4462;-53
2022/07/28 03:24:19;;;;;;;;;;;;;;;;;;1040129;28;3511;-52
2022/07/28 03:24:50;;;;;;;;;;;;;;;;;;1039513;28;3910;-53
2022/07/28 03:25:31;;;;;;;;;;;;;;;;;;1040440;28;1769;-51
2022/07/28 03:26:04;;;;;;;;;;;;;;;;;;1039286;28;3973;-52
2022/07/28 03:26:38;;;;;;;;;;;;;;;;;;1037882;28;4061;-56
2022/07/28 03:27:13;;;;;;;;;;;;;;;;;;1041427;28;2371;-53
2022/07/28 03:27:45;;;;;;;;;;;;;;;;;;1040403;28;4018;-50
2022/07/28 03:28:18;;;;;;;;;;;;;;;;;;1040825;28;2427;-55
2022/07/28 03:28:51;;;;;;;;;;;;;;;;;;1039982;28;3856;-52
2022/07/28 03:29:21;;;;;;;;;;;;;;;;;;1039804;28;4084;-49
2022/07/28 03:29:54;;;;;;;;;;;;;;;;;;1039545;28;2927;-56
2022/07/28 03:30:30;;;;;;;;;;;;;;;;;;1037547;28;4472;-53
2022/07/28 03:31:02;;;;;;;;;;;;;;;;;;1040416;28;2378;-55
2022/07/28 03:31:34;;;;;;;;;;;;;;;;;;1039338;28;4264;-51
2022/07/28 03:32:05;;;;;;;;;;;;;;;;;;1035855;28;2498;-52
2022/07/28 03:32:37;;;;;;;;;;;;;;;;;;1035759;28;3981;-52
2022/07/28 03:33:08;;;;;;;;;;;;;;;;;;1040120;28;2863;-55
2022/07/28 03:33:38;;;;;;;;;;;;;;;;;;1038574;28;3978;-54
2022/07/28 03:34:10;;;;;;;;;;;;;;;;;;1040555;28;2814;-55
2022/07/28 03:34:40;;;;;;;;;;;;;;;;;;1035389;28;4289;-49
2022/07/28 03:35:11;;;;;;;;;;;;;;;;;;1037201;28;3302;-55
2022/07/28 03:35:44;;;;;;;;;;;;;;;;;;1034942;28;3824;-52
2022/07/28 03:36:17;;;;;;;;;;;;;;;;;;1041705;28;3547;-52
2022/07/28 03:36:51;;;;;;;;;;;;;;;;;;1040638;28;4041;-52
2022/07/28 03:37:26;;;;;;;;;;;;;;;;;;1040043;28;4483;-53
2022/07/28 03:37:59;;;;;;;;;;;;;;;;;;1038763;28;2405;-51
2022/07/28 03:38:32;;;;;;;;;;;;;;;;;;1039401;28;3887;-51
2022/07/28 03:39:05;;;;;;;;;;;;;;;;;;1039986;28;3320;-55
2022/07/28 03:39:37;;;;;;;;;;;;;;;;;;1039548;28;4059;-54
2022/07/28 03:40:08;;;;;;;;;;;;;;;;;;1040279;28;3364;-56
2022/07/28 03:40:40;;;;;;;;;;;;;;;;;;1039503;28;4112;-52
2022/07/28 03:41:12;;;;;;;;;;;;;;;;;;1040710;28;2928;-53
2022/07/28 03:41:42;;;;;;;;;;;;;;;;;;1039762;28;4061;-51
2022/07/28 03:42:26;;;;;;;;;;;;;;;;;;1039262;28;3848;-52
2022/07/28 03:43:06;;;;;;;;;;;;;;;;;;1038921;28;3701;-54
2022/07/28 03:43:37;;;;;;;;;;;;;;;;;;1038738;28;4202;-54
2022/07/28 03:44:09;;;;;;;;;;;;;;;;;;1039201;28;2046;-54
2022/07/28 03:44:40;;;;;;;;;;;;;;;;;;1043965;28;3814;-51
2022/07/28 03:45:10;;;;;;;;;;;;;;;;;;1043084;28;3769;-54
2022/07/28 03:45:40;;;;;;;;;;;;;;;;;;1043537;28;3792;-53
2022/07/28 03:46:11;;;;;;;;;;;;;;;;;;1043521;28;2675;-56
2022/07/28 03:46:43;;;;;;;;;;;;;;;;;;1039923;28;3840;-53
2022/07/28 03:47:14;;;;;;;;;;;;;;;;;;1039322;28;2741;-55
2022/07/28 03:47:48;;;;;;;;;;;;;;;;;;1039581;28;3910;-55
2022/07/28 03:48:22;;;;;;;;;;;;;;;;;;1038939;28;1947;-54
2022/07/28 03:48:52;;;;;;;;;;;;;;;;;;1039823;28;3777;-55